createdAt,value
2019-05-16T00:01:38.412Z,83.02
2019-05-16T00:06:45.220Z,83.03
2019-05-16T00:11:51.156Z,82.93
2019-05-16T00:16:58.908Z,82.90
2019-05-16T00:22:04.885Z,82.92
2019-05-16T00:27:10.846Z,82.72
2019-05-16T00:32:18.949Z,82.88
2019-05-16T00:37:24.650Z,82.83
2019-05-16T00:42:30.497Z,82.72
2019-05-16T00:47:38.685Z,82.78
2019-05-16T00:52:44.144Z,82.57
2019-05-16T00:57:52.203Z,82.68
2019-05-16T01:02:58.068Z,82.41
2019-05-16T01:08:04.153Z,82.80
2019-05-16T01:13:10.499Z,82.71
2019-05-16T01:18:18.751Z,83.39
2019-05-16T01:23:23.360Z,83.27
2019-05-16T01:28:29.357Z,83.62
2019-05-16T01:33:35.636Z,83.31
2019-05-16T01:38:42.017Z,83.03
2019-05-16T01:43:48.499Z,83.04
2019-05-16T01:48:54.573Z,82.74
2019-05-16T01:54:00.543Z,82.72
2019-05-16T01:59:08.678Z,82.48
2019-05-16T02:04:14.230Z,82.39
2019-05-16T02:09:20.135Z,82.51
2019-05-16T02:14:28.203Z,82.38
2019-05-16T02:19:33.675Z,82.71
2019-05-16T02:24:39.647Z,82.29
2019-05-16T02:29:45.516Z,82.53
2019-05-16T02:34:51.531Z,82.26
2019-05-16T02:40:00.982Z,82.15
2019-05-16T02:45:06.972Z,81.76
2019-05-16T02:50:13.597Z,81.21
2019-05-16T02:55:21.660Z,80.97
2019-05-16T03:00:41.956Z,81.07
2019-05-16T03:05:45.132Z,81.25
2019-05-16T03:10:52.389Z,82.06
2019-05-16T03:16:02.358Z,82.30
2019-05-16T03:21:12.156Z,82.65
2019-05-16T03:26:21.053Z,83.16
2019-05-16T03:31:27.593Z,86.46
2019-05-16T03:36:34.685Z,84.55
2019-05-16T03:41:41.551Z,83.63
2019-05-16T03:46:47.852Z,83.37
2019-05-16T03:51:53.717Z,83.28
2019-05-16T03:57:00.549Z,83.07
2019-05-16T04:02:06.679Z,83.21
2019-05-16T04:07:12.552Z,83.34
2019-05-16T04:12:21.125Z,83.45
2019-05-16T04:17:27.055Z,83.44
2019-05-16T04:22:33.027Z,83.72
2019-05-16T04:27:41.644Z,84.02
2019-05-16T04:32:46.814Z,84.18
2019-05-16T04:37:53.219Z,84.18
2019-05-16T04:43:01.227Z,84.33
2019-05-16T04:48:06.886Z,84.62
2019-05-16T04:53:12.980Z,84.82
2019-05-16T04:58:23.369Z,85.23
2019-05-16T05:03:26.734Z,85.09
2019-05-16T05:08:49.008Z,84.92
2019-05-16T05:13:41.308Z,84.93
2019-05-16T05:18:47.725Z,85.05
2019-05-16T05:23:53.726Z,85.13
2019-05-16T05:28:59.966Z,85.24
2019-05-16T05:34:06.044Z,84.91
2019-05-16T05:39:15.484Z,84.88
2019-05-16T05:44:20.437Z,85.03
2019-05-16T05:49:26.651Z,85.44
2019-05-16T05:54:32.489Z,85.13
2019-05-16T05:59:40.476Z,85.09
2019-05-16T06:04:46.125Z,84.85
2019-05-16T06:09:56.299Z,84.72
2019-05-16T06:15:07.789Z,85.35
2019-05-16T06:20:14.035Z,85.49
2019-05-16T06:25:15.684Z,85.67
2019-05-16T06:30:21.999Z,85.88
2019-05-16T06:35:29.931Z,86.08
2019-05-16T06:40:35.950Z,85.96
2019-05-16T06:45:41.921Z,86.26
2019-05-16T06:50:48.494Z,86.43
2019-05-16T06:55:55.603Z,86.45
2019-05-16T07:01:03.601Z,86.02
2019-05-16T07:06:11.025Z,85.97
2019-05-16T07:11:16.118Z,85.80
2019-05-16T07:16:22.205Z,86.00
2019-05-16T07:21:31.075Z,86.52
2019-05-16T07:26:36.239Z,86.62
2019-05-16T07:31:42.139Z,86.64
2019-05-16T07:36:50.244Z,86.41
2019-05-16T07:41:56.848Z,86.43
2019-05-16T07:47:03.006Z,86.73
2019-05-16T07:52:09.939Z,87.04
2019-05-16T07:57:20.471Z,86.96
2019-05-16T08:02:23.030Z,86.51
2019-05-16T08:07:30.705Z,87.26
2019-05-16T08:12:40.435Z,87.51
2019-05-16T08:17:45.578Z,87.79
2019-05-16T08:22:51.895Z,88.03
2019-05-16T08:28:01.177Z,87.99
2019-05-16T08:33:06.565Z,87.44
2019-05-16T08:38:13.580Z,87.42
2019-05-16T08:48:27.960Z,87.45
2019-05-16T08:53:33.925Z,87.41
2019-05-16T08:58:41.127Z,87.26
2019-05-16T09:03:47.258Z,87.00
2019-05-16T09:08:53.274Z,86.98
2019-05-16T09:10:34.643Z,87.48
2019-05-16T09:13:59.258Z,87.39
2019-05-16T09:19:07.677Z,86.40
2019-05-16T09:24:13.063Z,86.73
2019-05-16T09:29:19.007Z,85.60
2019-05-16T09:34:28.122Z,84.89
2019-05-16T09:39:32.792Z,83.69
2019-05-16T09:44:38.782Z,82.47
2019-05-16T09:49:47.326Z,82.33
2019-05-16T09:54:52.333Z,82.73
2019-05-16T09:59:58.273Z,82.18
2019-05-16T10:05:12.409Z,83.04
2019-05-16T10:10:13.573Z,83.33
2019-05-16T10:15:20.223Z,83.64
2019-05-16T10:20:27.385Z,84.85
2019-05-16T10:25:33.589Z,85.07
2019-05-16T10:30:39.602Z,85.16
2019-05-16T10:35:48.022Z,86.26
2019-05-16T10:40:53.937Z,86.26
2019-05-16T10:46:00.279Z,86.55
2019-05-16T10:51:07.780Z,86.37
2019-05-16T10:56:14.047Z,86.70
2019-05-16T11:01:27.483Z,86.20
2019-05-16T11:06:29.437Z,86.69
2019-05-16T11:11:36.775Z,86.34
2019-05-16T11:16:43.025Z,86.84
2019-05-16T11:21:48.862Z,86.73
2019-05-16T11:26:56.766Z,86.45
2019-05-16T11:32:02.889Z,86.38
2019-05-16T11:37:08.853Z,86.31
2019-05-16T11:42:17.326Z,85.97
2019-05-16T11:47:22.542Z,86.56
2019-05-16T11:52:28.756Z,86.57
2019-05-16T11:57:34.892Z,86.36
2019-05-16T12:02:42.787Z,86.36
2019-05-16T12:07:48.902Z,86.42
2019-05-16T12:12:56.829Z,86.59
2019-05-16T12:18:05.194Z,86.62
2019-05-16T12:23:11.831Z,86.33
2019-05-16T12:28:17.810Z,86.09
2019-05-16T12:33:27.414Z,86.25
2019-05-16T12:38:31.762Z,86.05
2019-05-16T12:43:49.034Z,85.75
2019-05-16T12:48:47.362Z,85.98
2019-05-16T12:53:53.376Z,85.89
2019-05-16T12:58:59.341Z,85.79
2019-05-16T13:04:05.531Z,85.82
2019-05-16T13:09:11.756Z,85.95
2019-05-16T13:14:17.872Z,85.92
2019-05-16T13:19:23.965Z,85.73
2019-05-16T13:24:30.019Z,85.73
2019-05-16T13:29:37.078Z,84.36
2019-05-16T13:34:43.810Z,84.08
2019-05-16T13:39:50.081Z,84.05
2019-05-16T13:44:57.850Z,83.57
2019-05-16T13:50:11.644Z,83.48
2019-05-16T13:55:13.525Z,83.35
2019-05-16T14:00:21.038Z,83.65
2019-05-16T14:05:27.105Z,83.83
2019-05-16T14:10:33.405Z,83.76
2019-05-16T14:15:39.559Z,83.57
2019-05-16T14:20:46.636Z,83.72
2019-05-16T14:25:52.881Z,83.58
2019-05-16T14:30:58.805Z,83.24
2019-05-16T14:36:07.092Z,83.43
2019-05-16T14:41:12.997Z,83.18
2019-05-16T14:46:19.291Z,83.27
2019-05-16T14:51:28.190Z,83.41
2019-05-16T14:56:33.163Z,82.90
2019-05-16T15:01:39.136Z,82.96
2019-05-16T15:06:46.987Z,82.61
2019-05-16T15:11:52.824Z,82.43
2019-05-16T15:16:59.214Z,82.04
2019-05-16T15:22:07.886Z,81.34
2019-05-16T15:27:16.987Z,81.35
2019-05-16T15:32:23.155Z,81.21
2019-05-16T15:37:29.046Z,81.08
2019-05-16T15:42:37.299Z,81.15
2019-05-16T15:47:42.846Z,80.71
2019-05-16T15:52:48.991Z,80.58
2019-05-16T15:57:55.063Z,79.60
2019-05-16T16:03:01.143Z,79.40
2019-05-16T16:08:07.414Z,80.02
2019-05-16T16:13:13.811Z,79.83
2019-05-16T16:18:21.916Z,79.29
2019-05-16T16:23:27.807Z,79.49
2019-05-16T16:28:34.066Z,80.28
2019-05-16T16:33:40.249Z,80.24
2019-05-16T16:38:47.636Z,80.73
2019-05-16T16:43:53.920Z,80.91
2019-05-16T16:48:59.987Z,81.68
2019-05-16T16:54:07.637Z,81.19
2019-05-16T16:59:13.773Z,81.14
2019-05-16T17:04:20.050Z,81.23
2019-05-16T17:09:27.012Z,82.40
2019-05-16T17:14:33.429Z,81.55
2019-05-16T17:19:39.802Z,80.70
2019-05-16T17:24:47.282Z,80.77
2019-05-16T17:29:56.777Z,81.26
2019-05-16T17:35:02.431Z,80.01
2019-05-16T17:40:10.623Z,79.40
2019-05-16T17:45:18.236Z,79.61
2019-05-16T17:50:26.328Z,80.68
2019-05-16T17:55:32.372Z,80.94
2019-05-16T18:00:38.554Z,81.60
2019-05-16T18:05:47.235Z,82.25
2019-05-16T18:10:52.524Z,81.95
2019-05-16T18:15:58.514Z,81.41
2019-05-16T18:21:06.676Z,83.27
2019-05-16T18:26:12.276Z,82.16
2019-05-16T18:31:18.661Z,84.13
2019-05-16T18:36:26.473Z,84.85
2019-05-16T18:41:32.345Z,85.38
2019-05-16T18:46:38.448Z,85.99
2019-05-16T18:51:46.358Z,86.38
2019-05-16T18:56:52.199Z,86.50
2019-05-16T19:01:58.218Z,86.68
2019-05-16T19:07:04.371Z,86.63
2019-05-16T19:12:10.322Z,87.04
2019-05-16T19:17:22.162Z,86.55
2019-05-16T19:22:26.329Z,85.15
2019-05-16T19:27:31.019Z,85.35
2019-05-16T19:32:39.502Z,86.92
2019-05-16T19:37:46.957Z,86.73
2019-05-16T19:42:52.809Z,86.37
2019-05-16T19:47:58.846Z,85.88
2019-05-16T19:53:07.327Z,84.53
2019-05-16T19:58:12.772Z,83.80
2019-05-16T20:03:18.815Z,83.76
2019-05-16T20:08:26.972Z,84.96
2019-05-16T20:13:32.921Z,85.96
2019-05-16T20:18:39.303Z,85.70
2019-05-16T20:23:47.298Z,85.26
2019-05-16T20:28:52.894Z,85.19
2019-05-16T20:33:58.855Z,85.13
2019-05-16T20:39:09.042Z,82.93
2019-05-16T20:44:17.218Z,83.92
2019-05-16T20:49:22.602Z,84.41
2019-05-16T20:54:28.473Z,83.90
2019-05-16T20:59:34.749Z,84.63
2019-05-16T21:04:40.823Z,84.81
2019-05-16T21:09:46.794Z,85.47
2019-05-16T21:14:52.805Z,86.36
2019-05-16T21:19:58.735Z,86.33
2019-05-16T21:25:05.114Z,86.59
2019-05-16T21:30:11.700Z,87.03
2019-05-16T21:35:19.309Z,87.53
2019-05-16T21:40:26.544Z,87.51
2019-05-16T21:45:32.893Z,86.01
2019-05-16T21:50:38.861Z,86.07
2019-05-16T21:55:47.042Z,85.65
2019-05-16T22:00:56.705Z,85.56
2019-05-16T22:06:04.451Z,86.22
2019-05-16T22:11:11.966Z,86.15
2019-05-16T22:16:18.136Z,86.83
2019-05-16T22:21:24.028Z,87.27
2019-05-16T22:26:29.975Z,87.45
2019-05-16T22:31:36.662Z,87.77
2019-05-16T22:36:42.635Z,87.49
2019-05-16T22:41:48.602Z,86.33
2019-05-16T22:46:54.578Z,86.34
2019-05-16T22:52:00.446Z,86.81
2019-05-16T22:57:06.783Z,87.26
2019-05-16T23:02:13.028Z,87.67
2019-05-16T23:07:19.177Z,87.92
2019-05-16T23:12:26.628Z,88.32
2019-05-16T23:17:32.757Z,88.66
2019-05-16T23:22:38.954Z,88.74
2019-05-16T23:27:47.215Z,88.92
2019-05-16T23:32:52.514Z,89.28
2019-05-16T23:37:58.436Z,89.33
2019-05-16T23:43:04.359Z,89.30
2019-05-16T23:48:11.385Z,89.37
2019-05-16T23:53:17.728Z,89.59
2019-05-16T23:58:24.929Z,89.83
